MST,Max TemperatureF,Mean TemperatureF,Min TemperatureF,Max Dew PointF,MeanDew PointF,Min DewpointF,Max Humidity, Mean Humidity, Min Humidity, Max Sea Level PressureIn, Mean Sea Level PressureIn, Min Sea Level PressureIn, Max VisibilityMiles, Mean VisibilityMiles, Min VisibilityMiles, Max Wind SpeedMPH, Mean Wind SpeedMPH, Max Gust SpeedMPH,PrecipitationIn, CloudCover, Events, WindDirDegrees
2014-2-1,27,19,11,16,11,8,88,67,46,30.25,30.18,30.05,10,10,10,16,6,21,T,7,,109
2014-2-2,23,20,16,18,14,11,91,80,68,30.19,30.09,29.90,10,9,4,10,2,13,T,8,Snow,297
2014-2-3,25,16,6,20,11,-6,92,72,51,30.38,30.00,29.78,10,6,0,23,14,29,0.03,8,Snow,105
2014-2-4,7,3,-1,-5,-11,-17,66,56,46,30.70,30.56,30.40,10,10,10,24,16,29,0.00,6,,106
2014-2-5,3,-2,-7,-14,-17,-20,59,52,45,30.84,30.75,30.69,10,10,10,23,18,28,0.00,2,,125
2014-2-6,0,-11,-23,-15,-19,-27,77,62,47,30.66,30.47,30.18,10,10,10,24,6,30,0.00,0,,271
2014-2-7,11,1,-9,1,-6,-13,87,78,69,30.14,29.96,29.81,10,5,0,7,1,8,0.05,7,Fog-Snow,295
2014-2-8,19,11,2,8,4,0,95,76,56,30.28,30.06,29.81,10,5,1,17,5,21,0.07,7,Snow,32
2014-2-9,17,14,10,13,8,4,92,75,58,30.27,30.12,29.94,10,3,0,22,4,26,0.23,8,Fog-Snow,360
2014-2-10,27,22,16,20,15,12,92,80,68,30.34,30.19,30.10,10,6,1,9,2,11,0.04,8,Snow,149
2014-2-11,42,32,21,31,23,19,92,66,39,30.19,30.03,29.87,10,6,0,26,7,34,0.06,6,Fog-Rain-Snow,297
2014-2-12,45,36,27,36,29,21,92,77,62,30.04,29.79,29.63,10,10,9,25,10,32,0.02,6,Rain,113
2014-2-13,42,36,29,34,30,26,100,77,53,30.11,29.90,29.70,10,9,2,38,8,46,0.05,7,Rain-Snow,326
2014-2-14,41,34,26,35,29,24,92,81,70,30.12,29.89,29.75,10,8,1,24,7,31,0.03,7,Rain-Snow,109
2014-2-15,39,32,25,34,30,23,100,82,64,30.08,29.87,29.60,10,10,6,21,5,26,0.13,5,Rain,126
2014-2-16,42,38,33,35,26,19,100,76,52,30.09,29.84,29.56,10,10,6,35,8,39,0.01,7,Rain-Snow,256
2014-2-17,44,39,33,34,29,19,100,72,44,29.99,29.77,29.65,10,9,2,18,7,31,0.09,7,Rain-Snow,23
2014-2-18,42,35,28,35,30,25,92,76,60,30.06,29.85,29.59,10,8,1,29,6,36,0.10,8,Rain-Snow,58
2014-2-19,38,29,20,30,24,18,96,76,56,30.13,29.88,29.66,10,5,0,24,10,31,0.08,7,Fog-Snow,316
2014-2-20,33,26,18,31,27,19,92,81,69,30.19,29.96,29.83,10,6,0,21,6,25,0.10,8,Fog-Snow,179
2014-2-21,34,25,15,28,25,10,92,78,63,30.15,29.97,29.88,10,4,0,26,8,31,0.23,7,Fog-Snow,320
2014-2-22,25,15,5,20,13,2,100,87,73,30.22,30.17,30.02,10,8,1,7,1,7,T,6,Snow,310
2014-2-23,22,21,19,18,16,13,91,80,68,30.19,30.06,29.96,10,3,1,20,9,22,0.18,8,Snow,96
2014-2-24,20,18,15,17,13,9,92,80,67,30.40,30.21,29.97,10,3,0,15,6,19,0.39,8,Fog-Snow,352
2014-2-25,29,17,4,15,10,2,88,72,55,30.53,30.42,30.20,10,9,2,22,5,24,0.01,4,Snow,9
2014-2-26,21,10,-2,13,6,-4,88,75,62,30.47,30.32,30.10,10,10,10,13,3,15,T,5,,129
2014-2-27,24,17,10,22,17,7,96,88,80,30.07,29.76,29.66,10,3,1,5,0,5,0.38,8,Snow,176
2014-2-28,27,16,4,25,11,-5,100,82,63,30.18,29.87,29.68,10,2,0,26,18,34,0.32,8,Fog-Snow,97